Time;durP1;ratioP1;P1;durP2;ratioP2;P2;SDS_P1;SDS_P2;PMS_P1;PMS_P2;Temp;Humidity;BMP_temperature;BMP_pressure;BME280_temperature;BME280_humidity;BME280_pressure;Samples;Min_cycle;Max_cycle;Signal;HPM_P1;HPM_P2
2022/10/05 00:01:59;;;;;;;;;;;;;;;20.76;50.63;101483.31;5134989;27;19927;-36
2022/10/05 00:04:27;;;;;;;;;;;;;;;20.75;50.76;101490.78;5133313;27;20452;-36
2022/10/05 00:06:56;;;;;;;;;;;;;;;20.77;50.72;101487.75;5130476;27;20383;-36
2022/10/05 00:09:22;;;;;;;;;;;;;;;20.76;50.65;101484.13;5118164;27;19970;-36
2022/10/05 00:11:47;;;;;;;;;;;;;;;20.76;50.67;101486.06;5115665;28;19939;-36
2022/10/05 00:14:15;;;;;;;;;;;;;;;20.76;50.70;101488.84;5115190;27;20026;-36
2022/10/05 00:16:41;;;;;;;;;;;;;;;20.76;50.67;101478.59;5121526;27;20057;-37
2022/10/05 00:19:09;;;;;;;;;;;;;;;20.76;50.64;101484.13;5135460;27;19942;-36
2022/10/05 00:21:35;;;;;;;;;;;;;;;20.76;50.62;101486.06;5115628;27;20015;-36
2022/10/05 00:24:00;;;;;;;;;;;;;;;20.75;50.54;101471.41;5135980;27;19927;-37
2022/10/05 00:26:29;;;;;;;;;;;;;;;20.76;50.55;101475.00;5139342;27;19948;-37
2022/10/05 00:28:54;;;;;;;;;;;;;;;20.77;50.53;101471.16;5131989;27;20017;-37
2022/10/05 00:31:22;;;;;;;;;;;;;;;20.76;50.45;101470.28;5138262;27;19934;-36
2022/10/05 00:33:48;;;;;;;;;;;;;;;20.75;50.62;101468.63;5115028;27;19958;-37
2022/10/05 00:36:14;;;;;;;;;;;;;;;20.76;50.75;101463.94;5110447;28;20294;-36
2022/10/05 00:38:39;;;;;;;;;;;;;;;20.76;50.73;101459.22;5135139;27;19946;-36
2022/10/05 00:41:10;;;;;;;;;;;;;;;20.76;50.50;101464.75;5117448;27;19954;-37
2022/10/05 00:43:55;;;;;;;;;;;;;;;20.76;50.67;101464.75;5134664;27;20381;-36
2022/10/05 00:46:22;;;;;;;;;;;;;;;20.76;50.76;101469.47;5116093;28;20022;-36
2022/10/05 00:48:53;;;;;;;;;;;;;;;20.76;50.83;101473.06;5129419;27;19943;-37
2022/10/05 00:51:26;;;;;;;;;;;;;;;20.77;50.46;101477.50;5129436;27;19978;-36
2022/10/05 00:54:01;;;;;;;;;;;;;;;20.76;50.63;101469.47;5138722;27;19966;-36
2022/10/05 00:56:47;;;;;;;;;;;;;;;20.77;50.58;101469.22;5126760;27;20331;-36
2022/10/05 00:59:33;;;;;;;;;;;;;;;20.76;50.68;101466.69;5118968;27;19930;-37
2022/10/05 01:02:05;;;;;;;;;;;;;;;20.76;50.71;101469.47;5117425;27;20014;-36
2022/10/05 01:04:34;;;;;;;;;;;;;;;20.77;50.58;101469.22;5115706;27;20290;-37
2022/10/05 01:07:19;;;;;;;;;;;;;;;20.76;50.55;101467.53;5132317;27;19923;-36
2022/10/05 01:10:05;;;;;;;;;;;;;;;20.77;50.50;101471.97;5116241;27;19979;-37
2022/10/05 01:12:48;;;;;;;;;;;;;;;20.76;50.56;101472.25;5122157;27;19938;-36
2022/10/05 01:15:16;;;;;;;;;;;;;;;20.76;50.57;101472.25;5113442;27;19979;-36
2022/10/05 01:17:46;;;;;;;;;;;;;;;20.76;50.47;101472.25;5129326;27;20034;-36
2022/10/05 01:20:31;;;;;;;;;;;;;;;20.77;50.58;101465.63;5133095;27;19981;-36
2022/10/05 01:23:04;;;;;;;;;;;;;;;20.76;50.80;101462.00;5120206;27;21176;-36
2022/10/05 01:25:40;;;;;;;;;;;;;;;20.76;50.72;101459.22;5117375;27;20357;-36
2022/10/05 01:28:25;;;;;;;;;;;;;;;20.76;50.63;101455.63;5136160;27;19967;-36
2022/10/05 01:31:11;;;;;;;;;;;;;;;20.75;50.54;101443.72;5120105;27;20001;-36
2022/10/05 01:33:56;;;;;;;;;;;;;;;20.77;50.63;101449.00;5118050;27;19935;-37
2022/10/05 01:36:42;;;;;;;;;;;;;;;20.77;50.49;101446.25;5115354;27;19928;-36
2022/10/05 01:39:10;;;;;;;;;;;;;;;20.77;50.54;101440.69;5127594;27;20359;-36
2022/10/05 01:41:39;;;;;;;;;;;;;;;20.76;50.66;101445.38;5132653;27;19990;-36
2022/10/05 01:44:08;;;;;;;;;;;;;;;20.77;50.63;101443.47;5122924;27;19994;-36
2022/10/05 01:46:37;;;;;;;;;;;;;;;20.76;50.59;101442.63;5133395;27;19966;-36
2022/10/05 01:49:06;;;;;;;;;;;;;;;20.77;50.55;101437.94;5118807;27;20021;-36
2022/10/05 01:51:37;;;;;;;;;;;;;;;20.77;50.55;101436.00;5131688;27;19973;-37
2022/10/05 01:54:08;;;;;;;;;;;;;;;20.77;50.58;101440.69;5135863;27;19959;-37
2022/10/05 01:56:52;;;;;;;;;;;;;;;20.76;50.64;101439.84;5133868;27;20003;-36
2022/10/05 01:59:37;;;;;;;;;;;;;;;20.76;50.61;101437.06;5115078;27;19963;-37
2022/10/05 02:02:04;;;;;;;;;;;;;;;20.77;50.65;101430.47;5119459;27;20010;-37
2022/10/05 02:04:34;;;;;;;;;;;;;;;20.76;50.58;101439.84;5132446;27;19924;-36
2022/10/05 02:07:27;;;;;;;;;;;;;;;20.76;50.75;101426.00;5101092;27;19977;-36
2022/10/05 02:09:54;;;;;;;;;;;;;;;20.76;50.59;101426.00;5116392;27;19999;-36
2022/10/05 02:12:20;;;;;;;;;;;;;;;20.76;50.72;101430.72;5137984;27;20018;-37
2022/10/05 02:14:47;;;;;;;;;;;;;;;20.77;50.75;101424.09;5135289;27;19930;-36
2022/10/05 02:17:15;;;;;;;;;;;;;;;20.77;50.63;101421.31;5134881;27;20377;-36
2022/10/05 02:19:41;;;;;;;;;;;;;;;20.77;50.76;101415.78;5134932;27;20067;-36
2022/10/05 02:22:09;;;;;;;;;;;;;;;20.77;50.53;101413.03;5139537;27;20058;-36
2022/10/05 02:24:35;;;;;;;;;;;;;;;20.76;50.74;101417.69;5139118;27;20435;-36
2022/10/05 02:27:01;;;;;;;;;;;;;;;20.76;50.69;101414.94;5145794;27;20391;-37
2022/10/05 02:29:27;;;;;;;;;;;;;;;20.77;50.55;101415.78;5135544;27;19930;-37
2022/10/05 02:31:56;;;;;;;;;;;;;;;20.76;50.58;101412.16;5141597;27;19927;-38
2022/10/05 02:34:23;;;;;;;;;;;;;;;20.77;50.64;101413.03;5118172;27;19931;-37
2022/10/05 02:36:51;;;;;;;;;;;;;;;20.76;50.61;101414.94;5114285;27;20014;-37
2022/10/05 02:39:19;;;;;;;;;;;;;;;20.77;50.65;101413.03;5136472;27;20027;-37
2022/10/05 02:41:48;;;;;;;;;;;;;;;20.77;50.64;101407.50;5134152;27;20007;-37
2022/10/05 02:44:25;;;;;;;;;;;;;;;20.76;50.53;101412.16;5138608;27;20018;-38
2022/10/05 02:46:54;;;;;;;;;;;;;;;20.77;50.63;101413.84;5132009;27;20015;-38
2022/10/05 02:49:42;;;;;;;;;;;;;;;20.77;50.65;101410.25;5113385;27;20012;-37
2022/10/05 02:52:10;;;;;;;;;;;;;;;20.77;50.67;101408.31;5115403;27;20057;-37
2022/10/05 02:54:56;;;;;;;;;;;;;;;20.76;50.50;101398.31;5134870;27;20418;-38
2022/10/05 02:57:25;;;;;;;;;;;;;;;20.76;50.55;101403.88;5118044;27;20063;-38
2022/10/05 02:59:53;;;;;;;;;;;;;;;20.76;50.41;101390.03;5131816;27;19974;-38
2022/10/05 03:02:23;;;;;;;;;;;;;;;20.76;50.58;101397.50;5119910;27;19974;-37
2022/10/05 03:05:09;;;;;;;;;;;;;;;20.76;50.62;101390.03;5113666;27;19924;-38
2022/10/05 03:07:53;;;;;;;;;;;;;;;20.76;50.60;101391.97;5116223;27;20426;-38
2022/10/05 03:10:24;;;;;;;;;;;;;;;20.77;50.60;101380.63;5130481;27;20019;-37
2022/10/05 03:12:53;;;;;;;;;;;;;;;20.76;50.63;101380.91;5120654;27;19988;-38
2022/10/05 03:15:39;;;;;;;;;;;;;;;20.77;50.70;101377.03;5134427;27;20029;-38
2022/10/05 03:18:09;;;;;;;;;;;;;;;20.77;50.67;101380.63;5118078;27;19923;-38
2022/10/05 03:20:44;;;;;;;;;;;;;;;20.78;50.72;101387.00;5139775;27;19958;-37
2022/10/05 03:23:11;;;;;;;;;;;;;;;20.77;50.55;101380.63;5139442;27;19963;-37
2022/10/05 03:25:57;;;;;;;;;;;;;;;20.77;50.35;101377.88;5141443;27;20026;-37
2022/10/05 03:28:28;;;;;;;;;;;;;;;20.77;50.47;101368.75;5121757;27;19962;-37
2022/10/05 03:30:57;;;;;;;;;;;;;;;20.77;50.61;101375.09;5141051;27;20553;-37
2022/10/05 03:33:30;;;;;;;;;;;;;;;20.77;50.55;101365.97;5117353;27;19923;-38
2022/10/05 03:36:01;;;;;;;;;;;;;;;20.76;50.71;101362.34;5115009;28;20026;-37
2022/10/05 03:38:30;;;;;;;;;;;;;;;20.78;50.67;101367.63;5118476;28;19960;-38
2022/10/05 03:41:02;;;;;;;;;;;;;;;20.77;50.61;101358.50;5138964;27;20018;-38
2022/10/05 03:43:47;;;;;;;;;;;;;;;20.78;50.88;101348.25;5134105;27;20117;-38
2022/10/05 03:46:16;;;;;;;;;;;;;;;20.77;50.74;101350.19;5133484;27;20022;-37
2022/10/05 03:48:51;;;;;;;;;;;;;;;20.78;50.56;101351.00;5133460;27;20295;-38
2022/10/05 03:51:21;;;;;;;;;;;;;;;20.78;50.69;101342.72;5121284;27;20474;-37
2022/10/05 03:53:47;;;;;;;;;;;;;;;20.78;50.64;101345.47;5139029;27;20007;-38
2022/10/05 03:56:14;;;;;;;;;;;;;;;20.76;50.59;101342.97;5116387;27;20457;-38
2022/10/05 03:58:41;;;;;;;;;;;;;;;20.76;50.62;101342.97;5134786;27;20387;-38
2022/10/05 04:01:09;;;;;;;;;;;;;;;20.77;50.67;101350.19;5117828;27;20357;-37
2022/10/05 04:03:35;;;;;;;;;;;;;;;20.77;50.50;101336.34;5113495;27;19938;-37
2022/10/05 04:06:03;;;;;;;;;;;;;;;20.77;50.63;101336.34;5131136;27;20070;-37
2022/10/05 04:11:11;;;;;;;;;;;;;;;20.78;50.58;101345.47;5167757;27;19926;-35
2022/10/05 04:13:39;;;;;;;;;;;;;;;20.78;50.56;101342.72;5165639;27;20026;-35
2022/10/05 04:18:48;;;;;;;;;;;;;;;20.77;50.53;101338.28;5178188;27;19929;-35
2022/10/05 04:21:30;;;;;;;;;;;;;;;20.77;50.66;101341.88;5144559;27;20433;-35
2022/10/05 04:23:57;;;;;;;;;;;;;;;20.77;50.70;101339.13;5159541;27;19962;-35
2022/10/05 04:26:43;;;;;;;;;;;;;;;20.77;50.65;101335.53;5158809;27;19923;-35
2022/10/05 04:29:20;;;;;;;;;;;;;;;20.78;50.49;101339.94;5142324;27;20366;-35
2022/10/05 04:31:51;;;;;;;;;;;;;;;20.78;50.70;101339.94;5164083;27;20026;-35
2022/10/05 04:34:24;;;;;;;;;;;;;;;20.77;50.62;101330.81;5161403;27;19923;-35
2022/10/05 04:36:53;;;;;;;;;;;;;;;20.77;50.65;101329.97;5160283;27;20395;-35
2022/10/05 04:39:23;;;;;;;;;;;;;;;20.77;50.64;101347.41;5161892;27;19983;-37
2022/10/05 04:42:07;;;;;;;;;;;;;;;20.78;50.57;101339.94;5135771;27;19938;-37
2022/10/05 04:44:37;;;;;;;;;;;;;;;20.77;50.75;101339.13;5160434;27;20014;-38
2022/10/05 04:47:05;;;;;;;;;;;;;;;20.78;50.78;101339.94;5151530;27;20019;-37
2022/10/05 04:49:34;;;;;;;;;;;;;;;20.77;50.62;101339.13;5157363;27;19926;-37
2022/10/05 04:52:05;;;;;;;;;;;;;;;20.77;50.65;101341.88;5152491;27;20353;-37
2022/10/05 04:54:35;;;;;;;;;;;;;;;20.77;50.61;101341.06;5159789;27;20018;-38
2022/10/05 04:57:02;;;;;;;;;;;;;;;20.77;50.65;101341.06;5154499;27;20398;-38
2022/10/05 04:59:34;;;;;;;;;;;;;;;20.77;50.58;101341.06;5128475;27;20015;-37
2022/10/05 05:02:03;;;;;;;;;;;;;;;20.77;50.56;101341.06;5150640;27;19969;-37
2022/10/05 05:04:33;;;;;;;;;;;;;;;20.77;50.78;101352.94;5150214;27;19970;-38
2022/10/05 05:07:17;;;;;;;;;;;;;;;20.78;50.65;101342.72;5151157;27;20057;-38
2022/10/05 05:10:03;;;;;;;;;;;;;;;20.78;50.70;101345.47;5148771;27;20010;-38
2022/10/05 05:12:40;;;;;;;;;;;;;;;20.77;50.57;101341.88;5129336;27;19963;-37
2022/10/05 05:15:11;;;;;;;;;;;;;;;20.78;50.57;101345.47;5152363;27;20018;-38
2022/10/05 05:17:44;;;;;;;;;;;;;;;20.77;50.57;101339.13;5149709;27;20022;-38
2022/10/05 05:20:30;;;;;;;;;;;;;;;20.78;50.49;101342.72;5148349;27;19973;-38
2022/10/05 05:23:00;;;;;;;;;;;;;;;20.77;50.57;101339.13;5135386;27;19954;-38
2022/10/05 05:25:32;;;;;;;;;;;;;;;20.78;50.55;101345.47;5153374;27;20022;-37
2022/10/05 05:28:00;;;;;;;;;;;;;;;20.77;50.65;101339.13;5148753;27;20257;-37
2022/10/05 05:30:29;;;;;;;;;;;;;;;20.77;50.54;101338.28;5121942;27;20014;-38
2022/10/05 05:32:59;;;;;;;;;;;;;;;20.78;50.48;101339.94;5131307;27;20363;-37
2022/10/05 05:35:28;;;;;;;;;;;;;;;20.77;50.64;101346.59;5139122;27;20014;-38
2022/10/05 05:38:14;;;;;;;;;;;;;;;20.78;50.63;101339.94;5133841;27;19963;-37
2022/10/05 05:40:43;;;;;;;;;;;;;;;20.77;50.74;101350.19;5119414;27;20065;-37
2022/10/05 05:43:20;;;;;;;;;;;;;;;20.77;50.53;101341.88;5139346;27;20341;-37
2022/10/05 05:45:49;;;;;;;;;;;;;;;20.78;50.74;101345.47;5134641;27;19959;-37
2022/10/05 05:48:21;;;;;;;;;;;;;;;20.78;50.69;101351.00;5122312;27;20318;-37
2022/10/05 05:50:48;;;;;;;;;;;;;;;20.78;50.92;101342.72;5115928;27;20022;-37
2022/10/05 05:53:34;;;;;;;;;;;;;;;20.77;50.57;101350.19;5117130;27;19975;-37
2022/10/05 05:56:15;;;;;;;;;;;;;;;20.77;50.65;101347.41;5120393;27;20101;-37
2022/10/05 05:58:42;;;;;;;;;;;;;;;20.78;50.69;101342.72;5130438;27;20244;-38
2022/10/05 06:01:17;;;;;;;;;;;;;;;20.78;50.61;101339.94;5135910;27;20360;-37
2022/10/05 06:04:00;;;;;;;;;;;;;;;20.77;50.86;101339.13;5135679;27;19971;-37
2022/10/05 06:06:26;;;;;;;;;;;;;;;20.77;50.53;101341.88;5137098;27;19965;-38
2022/10/05 06:08:55;;;;;;;;;;;;;;;20.78;50.57;101339.94;5139404;27;20394;-38
2022/10/05 06:11:25;;;;;;;;;;;;;;;20.78;50.66;101337.19;5122225;27;19981;-38
2022/10/05 06:13:51;;;;;;;;;;;;;;;20.78;50.63;101343.53;5133621;27;20010;-37
2022/10/05 06:16:21;;;;;;;;;;;;;;;20.77;50.45;101341.88;5136210;27;19923;-38
2022/10/05 06:18:47;;;;;;;;;;;;;;;20.78;50.55;101345.47;5116603;27;19923;-38
2022/10/05 06:21:15;;;;;;;;;;;;;;;20.77;50.71;101350.19;5137118;27;20010;-38
2022/10/05 06:23:46;;;;;;;;;;;;;;;20.79;50.52;101349.91;5136904;27;20018;-37
2022/10/05 06:26:18;;;;;;;;;;;;;;;20.78;50.73;101351.00;5117375;27;20378;-37
2022/10/05 06:28:46;;;;;;;;;;;;;;;20.78;50.61;101351.00;5136623;27;19999;-37
2022/10/05 06:31:23;;;;;;;;;;;;;;;20.78;50.56;101345.47;5140860;27;19965;-37
2022/10/05 06:33:50;;;;;;;;;;;;;;;20.77;50.64;101347.41;5115623;27;20437;-37
2022/10/05 06:36:19;;;;;;;;;;;;;;;20.77;50.52;101352.94;5132121;27;19969;-37
2022/10/05 06:39:04;;;;;;;;;;;;;;;20.78;50.78;101353.78;5135374;27;20010;-37
2022/10/05 06:41:49;;;;;;;;;;;;;;;20.77;50.54;101344.66;5118626;27;20468;-37
2022/10/05 06:44:15;;;;;;;;;;;;;;;20.78;50.55;101342.72;5134888;27;20390;-38
2022/10/05 06:47:01;;;;;;;;;;;;;;;20.78;50.37;101345.47;5135054;27;19966;-38
2022/10/05 06:49:36;;;;;;;;;;;;;;;20.77;50.60;101350.19;5120806;27;19985;-37
2022/10/05 06:52:04;;;;;;;;;;;;;;;20.77;50.67;101347.41;5132824;27;20018;-38
2022/10/05 06:54:41;;;;;;;;;;;;;;;20.78;50.54;101342.72;5119511;27;19981;-37
2022/10/05 06:57:14;;;;;;;;;;;;;;;20.78;50.79;101349.06;5118313;27;20025;-37
2022/10/05 07:02:35;;;;;;;;;;;;;;;20.78;50.60;101343.53;5160474;27;19938;-35
2022/10/05 07:05:11;;;;;;;;;;;;;;;20.78;50.65;101348.25;5140312;27;20017;-35
2022/10/05 07:07:40;;;;;;;;;;;;;;;20.78;50.47;101348.25;5152774;27;19974;-35
2022/10/05 07:10:11;;;;;;;;;;;;;;;20.77;50.67;101347.41;5157455;27;20010;-35
2022/10/05 07:12:40;;;;;;;;;;;;;;;20.78;50.64;101346.31;5155856;27;20026;-35
2022/10/05 07:15:26;;;;;;;;;;;;;;;20.78;50.63;101345.47;5153825;27;19974;-35
2022/10/05 07:18:02;;;;;;;;;;;;;;;20.78;50.53;101343.53;5139736;27;20010;-35
2022/10/05 07:20:31;;;;;;;;;;;;;;;20.78;50.66;101337.19;5156271;27;20414;-35
2022/10/05 07:23:16;;;;;;;;;;;;;;;20.78;50.58;101334.41;5141424;27;19958;-35
2022/10/05 07:25:49;;;;;;;;;;;;;;;20.77;50.64;101333.56;5143748;27;20354;-35
2022/10/05 07:28:18;;;;;;;;;;;;;;;20.77;50.69;101336.34;5155728;27;20033;-35
2022/10/05 07:30:49;;;;;;;;;;;;;;;20.78;50.61;101339.94;5152979;27;19974;-35
2022/10/05 07:33:20;;;;;;;;;;;;;;;20.78;50.47;101346.31;5154666;27;19965;-35
2022/10/05 07:38:36;;;;;;;;;;;;;;;20.78;50.53;101340.75;5148151;27;19970;-37
2022/10/05 07:41:22;;;;;;;;;;;;;;;20.78;50.56;101340.75;5156597;27;20454;-37
2022/10/05 07:43:53;;;;;;;;;;;;;;;20.78;50.53;101335.22;5142358;27;19990;-38
2022/10/05 07:46:42;;;;;;;;;;;;;;;20.78;50.55;101334.41;5136261;27;20302;-37
2022/10/05 07:49:19;;;;;;;;;;;;;;;20.78;50.67;101334.41;5157747;27;20029;-37
2022/10/05 07:51:45;;;;;;;;;;;;;;;20.78;50.55;101338.00;5157994;27;20045;-38
2022/10/05 07:54:14;;;;;;;;;;;;;;;20.78;50.56;101337.19;5155635;27;19974;-37
2022/10/05 07:56:40;;;;;;;;;;;;;;;20.79;50.62;101338.81;5156534;27;20296;-38
2022/10/05 07:59:09;;;;;;;;;;;;;;;20.78;50.57;101338.00;5138533;27;20383;-37
2022/10/05 08:01:36;;;;;;;;;;;;;;;20.78;50.69;101335.22;5155692;27;20015;-38
2022/10/05 08:04:03;;;;;;;;;;;;;;;20.78;50.55;101337.19;5143356;27;20176;-37
2022/10/05 08:06:31;;;;;;;;;;;;;;;20.78;50.63;101335.22;5157202;27;20391;-37
2022/10/05 08:09:00;;;;;;;;;;;;;;;20.78;50.64;101339.94;5154864;27;19962;-37
2022/10/05 08:11:26;;;;;;;;;;;;;;;20.78;50.67;101337.19;5155098;27;20422;-38
2022/10/05 08:13:53;;;;;;;;;;;;;;;20.77;50.63;101336.34;5141261;27;19976;-38
2022/10/05 08:16:19;;;;;;;;;;;;;;;20.78;50.72;101337.19;5127860;27;20669;-38
2022/10/05 08:19:05;;;;;;;;;;;;;;;20.78;50.69;101340.75;5143146;27;20366;-38
2022/10/05 08:21:33;;;;;;;;;;;;;;;20.78;50.62;101339.94;5125118;27;20022;-37
2022/10/05 08:24:18;;;;;;;;;;;;;;;20.77;50.55;101336.34;5140698;27;20051;-38
2022/10/05 08:29:25;;;;;;;;;;;;;;;20.78;50.52;101335.22;5174550;27;19946;-35
2022/10/05 08:31:52;;;;;;;;;;;;;;;20.78;50.62;101337.19;5159522;27;19982;-35
2022/10/05 08:34:20;;;;;;;;;;;;;;;20.77;50.74;101336.34;5158395;27;20001;-36
2022/10/05 08:36:49;;;;;;;;;;;;;;;20.78;50.54;101338.00;5156154;27;20014;-35
2022/10/05 08:39:19;;;;;;;;;;;;;;;20.79;50.52;101330.53;5158898;27;19931;-37
2022/10/05 08:41:51;;;;;;;;;;;;;;;20.78;50.54;101326.09;5141196;27;20327;-38
2022/10/05 08:44:36;;;;;;;;;;;;;;;20.78;50.69;101332.47;5157292;27;20363;-37
2022/10/05 08:47:13;;;;;;;;;;;;;;;20.78;50.62;101332.47;5142291;27;20007;-37
2022/10/05 08:49:57;;;;;;;;;;;;;;;20.78;50.61;101335.22;5151806;27;20379;-37
2022/10/05 08:52:23;;;;;;;;;;;;;;;20.79;50.61;101336.06;5139261;27;19958;-37
2022/10/05 08:54:55;;;;;;;;;;;;;;;20.78;50.79;101326.94;5158385;27;20383;-38
2022/10/05 08:57:27;;;;;;;;;;;;;;;20.78;50.77;101332.47;5147293;27;19974;-37
2022/10/05 08:59:57;;;;;;;;;;;;;;;20.79;50.68;101324.97;5146388;27;19971;-37
2022/10/05 09:02:27;;;;;;;;;;;;;;;20.78;50.54;101324.16;5130665;27;20361;-38
2022/10/05 09:05:12;;;;;;;;;;;;;;;20.79;50.54;101331.34;5153708;27;20339;-38
2022/10/05 09:07:58;;;;;;;;;;;;;;;20.78;50.58;101329.69;5131832;27;20010;-37
2022/10/05 09:10:43;;;;;;;;;;;;;;;20.77;50.54;101325.28;5134581;27;20405;-38
2022/10/05 09:13:30;;;;;;;;;;;;;;;20.78;50.54;101321.38;5139207;27;19940;-37
2022/10/05 09:16:15;;;;;;;;;;;;;;;20.78;50.57;101321.38;5132010;27;19927;-37
2022/10/05 09:18:46;;;;;;;;;;;;;;;20.78;50.73;101315.03;5138423;27;19927;-37
2022/10/05 09:21:17;;;;;;;;;;;;;;;20.79;50.73;101316.69;5148446;27;20026;-37
2022/10/05 09:23:43;;;;;;;;;;;;;;;20.79;50.64;101314.72;5155865;27;20373;-37
2022/10/05 09:26:28;;;;;;;;;;;;;;;20.78;50.54;101318.63;5135593;27;20015;-37
2022/10/05 09:29:08;;;;;;;;;;;;;;;20.78;50.55;101312.25;5136337;27;19931;-37
2022/10/05 09:31:48;;;;;;;;;;;;;;;20.77;50.54;101303.13;5147795;27;19935;-37
2022/10/05 09:34:34;;;;;;;;;;;;;;;20.77;50.65;101308.66;5150757;27;20216;-38
2022/10/05 09:37:07;;;;;;;;;;;;;;;20.78;50.61;101309.50;5134514;27;19966;-38
2022/10/05 09:39:37;;;;;;;;;;;;;;;20.78;50.56;101313.09;5119194;27;19974;-37
2022/10/05 09:42:13;;;;;;;;;;;;;;;20.78;50.62;101309.50;5140834;27;20039;-37
2022/10/05 09:44:58;;;;;;;;;;;;;;;20.78;50.38;101313.09;5139206;27;20382;-37
2022/10/05 09:47:30;;;;;;;;;;;;;;;20.78;50.54;101315.03;5117508;27;20010;-37
2022/10/05 09:49:59;;;;;;;;;;;;;;;20.78;50.57;101312.25;5140094;27;20036;-37
2022/10/05 09:52:44;;;;;;;;;;;;;;;20.78;50.49;101312.25;5137783;27;20392;-37
2022/10/05 09:55:19;;;;;;;;;;;;;;;20.79;50.58;101311.13;5120130;27;19955;-38
2022/10/05 09:58:05;;;;;;;;;;;;;;;20.78;50.61;101299.25;5116737;27;19930;-37
2022/10/05 10:00:49;;;;;;;;;;;;;;;20.79;50.67;101309.19;5121230;27;19995;-37
2022/10/05 10:03:48;;;;;;;;;;;;;;;20.79;50.53;101303.66;5135339;27;19938;-38
2022/10/05 10:06:23;;;;;;;;;;;;;;;20.78;50.78;101304.78;5116387;27;19969;-38
2022/10/05 10:09:09;;;;;;;;;;;;;;;20.79;50.61;101302.84;5119081;27;20406;-38
2022/10/05 10:11:37;;;;;;;;;;;;;;;20.79;50.59;101308.38;5121540;27;19970;-38
2022/10/05 10:14:23;;;;;;;;;;;;;;;20.78;50.67;101307.56;5136558;27;19928;-38
2022/10/05 10:16:52;;;;;;;;;;;;;;;20.79;50.55;101302.84;5114950;27;19984;-37
2022/10/05 10:19:24;;;;;;;;;;;;;;;20.79;50.58;101308.38;5137153;27;20444;-38
2022/10/05 10:22:00;;;;;;;;;;;;;;;20.79;50.69;101297.31;5135192;27;19965;-38
2022/10/05 10:24:46;;;;;;;;;;;;;;;20.78;50.51;101304.78;5141474;27;20011;-37
2022/10/05 10:27:15;;;;;;;;;;;;;;;20.78;50.55;101304.78;5122024;27;19965;-38
2022/10/05 10:32:36;;;;;;;;;;;;;;;20.79;50.55;101297.31;5172672;27;20412;-38
2022/10/05 10:35:21;;;;;;;;;;;;;;;20.79;50.51;101289.00;5140849;27;20021;-38
2022/10/05 10:38:01;;;;;;;;;;;;;;;20.78;50.65;101293.72;5145818;27;19963;-38
2022/10/05 10:40:36;;;;;;;;;;;;;;;20.78;50.61;101296.47;5157973;27;19966;-38
2022/10/05 10:45:52;;;;;;;;;;;;;;;20.79;50.52;101297.31;5168424;27;19925;-38
2022/10/05 10:50:57;;;;;;;;;;;;;;;20.78;50.56;101277.09;5167227;27;19933;-35
2022/10/05 10:53:27;;;;;;;;;;;;;;;20.79;50.59;101289.00;5170116;27;20551;-35
2022/10/05 10:56:13;;;;;;;;;;;;;;;20.78;50.62;101288.19;5156217;27;19974;-35
2022/10/05 10:58:58;;;;;;;;;;;;;;;20.78;50.69;101274.34;5134971;27;19980;-35
2022/10/05 11:01:28;;;;;;;;;;;;;;;20.78;50.69;101260.50;5139495;27;19978;-35
2022/10/05 11:04:14;;;;;;;;;;;;;;;20.78;50.65;101254.97;5131801;27;20310;-35
2022/10/05 11:07:00;;;;;;;;;;;;;;;20.78;50.70;101254.13;5135559;27;19971;-35
2022/10/05 11:09:38;;;;;;;;;;;;;;;20.77;50.70;101239.47;5133870;27;20363;-35
2022/10/05 11:12:14;;;;;;;;;;;;;;;20.79;50.59;101236.41;5138028;27;19962;-37
2022/10/05 11:14:51;;;;;;;;;;;;;;;20.79;50.50;101241.94;5153631;27;19954;-38
2022/10/05 11:20:30;;;;;;;;;;;;;;;20.80;50.53;101215.91;5162857;27;19926;-35
2022/10/05 11:22:57;;;;;;;;;;;;;;;20.79;50.68;101220.63;5138184;27;19993;-35
2022/10/05 11:25:43;;;;;;;;;;;;;;;20.79;50.59;101214.25;5158330;27;20022;-37
2022/10/05 11:31:04;;;;;;;;;;;;;;;20.78;50.70;101202.38;5166978;27;19926;-37
2022/10/05 11:33:49;;;;;;;;;;;;;;;20.79;50.58;101200.44;5158194;27;19930;-38
2022/10/05 11:36:22;;;;;;;;;;;;;;;20.79;50.58;101195.72;5140212;27;20414;-38
2022/10/05 11:38:52;;;;;;;;;;;;;;;20.79;50.52;101184.63;5148957;27;20345;-38
2022/10/05 11:41:24;;;;;;;;;;;;;;;20.79;50.65;101189.34;5148697;27;19975;-37
2022/10/05 11:44:02;;;;;;;;;;;;;;;20.79;50.58;101186.59;5149305;27;19955;-38
2022/10/05 11:46:52;;;;;;;;;;;;;;;20.79;50.65;101179.09;5149531;27;19931;-38
2022/10/05 11:49:20;;;;;;;;;;;;;;;20.78;50.55;101166.38;5133867;27;20619;-38
2022/10/05 11:51:50;;;;;;;;;;;;;;;20.79;50.67;101168.03;5132218;27;20390;-37
2022/10/05 11:54:21;;;;;;;;;;;;;;;20.78;50.45;101154.50;5134171;27;20365;-37
2022/10/05 11:57:07;;;;;;;;;;;;;;;20.78;50.63;101160.03;5142764;27;20023;-38
2022/10/05 11:59:34;;;;;;;;;;;;;;;20.79;50.64;101156.97;5127924;27;20387;-37
2022/10/05 12:02:04;;;;;;;;;;;;;;;20.79;50.67;101145.88;5125642;27;19934;-38
2022/10/05 12:04:49;;;;;;;;;;;;;;;20.78;50.63;101147.00;5145031;27;19984;-38
2022/10/05 12:07:35;;;;;;;;;;;;;;;20.79;50.70;101145.06;5126565;27;19958;-37
2022/10/05 12:10:16;;;;;;;;;;;;;;;20.79;50.50;101136.75;5123695;27;20473;-37
2022/10/05 12:12:47;;;;;;;;;;;;;;;20.80;50.54;101127.34;5141643;27;19969;-37
2022/10/05 12:15:19;;;;;;;;;;;;;;;20.79;50.64;101129.28;5140575;27;20059;-38
2022/10/05 12:17:47;;;;;;;;;;;;;;;20.79;50.55;101122.91;5124915;27;20447;-37
2022/10/05 12:20:17;;;;;;;;;;;;;;;20.78;50.61;101107.44;5125024;27;20422;-38
2022/10/05 12:22:48;;;;;;;;;;;;;;;20.78;50.52;101108.25;5126038;27;20039;-37
2022/10/05 12:25:16;;;;;;;;;;;;;;;20.78;50.60;101099.97;5142729;27;19960;-38
2022/10/05 12:27:45;;;;;;;;;;;;;;;20.79;50.47;101103.53;5142900;27;19931;-37
2022/10/05 12:30:12;;;;;;;;;;;;;;;20.79;50.72;101098.00;5124476;27;20339;-38
2022/10/05 12:32:57;;;;;;;;;;;;;;;20.79;50.51;101089.72;5144449;27;20698;-37
2022/10/05 12:35:37;;;;;;;;;;;;;;;20.79;50.55;101089.72;5126335;27;19924;-37
2022/10/05 12:38:16;;;;;;;;;;;;;;;20.78;50.52;101083.34;5142826;27;19935;-37
2022/10/05 12:40:44;;;;;;;;;;;;;;;20.79;50.63;101087.75;5134788;27;20242;-37
2022/10/05 12:43:16;;;;;;;;;;;;;;;20.79;50.52;101076.69;5110990;28;20033;-37
2022/10/05 12:45:46;;;;;;;;;;;;;;;20.79;50.64;101071.16;5126758;28;19973;-38
2022/10/05 12:48:24;;;;;;;;;;;;;;;20.80;50.53;101066.44;5131424;27;19923;-37
2022/10/05 12:50:53;;;;;;;;;;;;;;;20.80;50.52;101069.22;5124321;28;19975;-38
2022/10/05 12:53:27;;;;;;;;;;;;;;;20.79;50.51;101056.50;5112810;28;19978;-37
2022/10/05 12:56:00;;;;;;;;;;;;;;;20.79;50.62;101049.00;5130859;28;20397;-38
2022/10/05 12:58:45;;;;;;;;;;;;;;;20.78;50.58;101047.38;5127515;28;20006;-37
2022/10/05 13:03:52;;;;;;;;;;;;;;;20.80;50.47;101039.59;5176190;27;19925;-35
2022/10/05 13:06:37;;;;;;;;;;;;;;;20.79;50.69;101034.34;5157370;27;20196;-35
2022/10/05 13:09:07;;;;;;;;;;;;;;;20.79;50.55;101026.88;5156382;27;20450;-35
2022/10/05 13:11:35;;;;;;;;;;;;;;;20.79;50.72;101021.34;5155457;27;20017;-35
2022/10/05 13:14:20;;;;;;;;;;;;;;;20.79;50.50;101020.50;5173621;27;20018;-35
2022/10/05 13:16:50;;;;;;;;;;;;;;;20.79;50.56;101013.03;5153191;27;20161;-38
2022/10/05 13:19:40;;;;;;;;;;;;;;;20.80;50.61;101011.09;5171391;27;19934;-38
2022/10/05 13:22:25;;;;;;;;;;;;;;;20.80;50.73;101009.13;5158815;27;19958;-38
2022/10/05 13:25:08;;;;;;;;;;;;;;;20.79;50.55;100995.59;5157364;27;19966;-37
2022/10/05 13:27:34;;;;;;;;;;;;;;;20.79;50.52;101004.72;5158457;27;19958;-37
2022/10/05 13:30:01;;;;;;;;;;;;;;;20.79;50.52;100998.38;5152888;27;20013;-37
2022/10/05 13:32:31;;;;;;;;;;;;;;;20.80;50.63;100994.47;5171265;27;19930;-37
2022/10/05 13:35:01;;;;;;;;;;;;;;;20.79;50.55;100996.44;5154244;27;19977;-37
2022/10/05 13:40:34;;;;;;;;;;;;;;;20.79;50.59;100990.88;5162772;27;19925;-37
2022/10/05 13:43:20;;;;;;;;;;;;;;;20.79;50.61;101001.97;5137472;27;20331;-38